createdAt,value
2018-02-27T00:01:49.139Z,8.88
2018-02-27T00:04:21.737Z,6.53
2018-02-27T00:06:50.015Z,3.87
2018-02-27T00:09:20.293Z,5.72
2018-02-27T00:11:48.744Z,5.40
2018-02-27T00:14:17.848Z,5.18
2018-02-27T00:16:46.126Z,4.70
2018-02-27T00:19:14.417Z,4.80
2018-02-27T00:21:43.446Z,5.97
2018-02-27T00:24:11.741Z,5.65
2018-02-27T00:26:40.171Z,3.63
2018-02-27T00:29:09.800Z,4.60
2018-02-27T00:31:38.181Z,3.73
2018-02-27T00:34:07.232Z,3.40
2018-02-27T00:36:35.493Z,3.20
2018-02-27T00:39:04.541Z,4.57
2018-02-27T00:41:33.249Z,5.25
2018-02-27T00:44:03.067Z,6.93
2018-02-27T00:46:32.888Z,4.10
2018-02-27T00:49:02.117Z,5.37
2018-02-27T00:51:30.392Z,3.23
2018-02-27T00:54:00.644Z,5.37
2018-02-27T00:56:29.414Z,4.60
2018-02-27T00:58:58.444Z,6.60
2018-02-27T01:01:26.730Z,4.87
2018-02-27T01:03:55.050Z,3.40
2018-02-27T01:06:23.319Z,3.25
2018-02-27T01:08:51.594Z,4.93
2018-02-27T01:11:21.254Z,5.25
2018-02-27T01:13:49.522Z,3.05
2018-02-27T01:16:18.280Z,4.28
2018-02-27T01:18:47.508Z,4.00
2018-02-27T01:21:15.805Z,4.10
2018-02-27T01:23:44.896Z,5.10
2018-02-27T01:26:13.384Z,4.50
2018-02-27T01:28:41.659Z,5.75
2018-02-27T01:31:09.948Z,5.55
2018-02-27T01:33:39.496Z,4.80
2018-02-27T01:36:07.826Z,3.67
2018-02-27T01:38:36.079Z,3.60
2018-02-27T01:41:04.577Z,5.05
2018-02-27T01:43:36.376Z,4.65
2018-02-27T01:46:04.752Z,4.20
2018-02-27T01:48:33.178Z,3.95
2018-02-27T01:51:13.251Z,4.15
2018-02-27T01:53:43.848Z,2.00
2018-02-27T01:56:12.099Z,4.15
2018-02-27T01:58:40.393Z,3.50
2018-02-27T02:01:08.895Z,4.37
2018-02-27T02:03:37.953Z,5.22
2018-02-27T02:06:07.485Z,4.68
2018-02-27T02:08:35.779Z,4.18
2018-02-27T02:11:04.860Z,4.40
2018-02-27T02:13:33.152Z,5.15
2018-02-27T02:16:01.623Z,4.57
2018-02-27T02:18:33.245Z,3.65
2018-02-27T02:21:01.539Z,3.70
2018-02-27T02:23:29.878Z,4.70
2018-02-27T02:25:58.151Z,2.95
2018-02-27T02:28:27.182Z,4.85
2018-02-27T02:30:56.606Z,3.42
2018-02-27T02:33:24.887Z,3.92
2018-02-27T02:35:53.947Z,4.55
2018-02-27T02:38:22.370Z,2.62
2018-02-27T02:40:50.644Z,5.50
2018-02-27T02:43:21.930Z,4.75
2018-02-27T02:45:50.366Z,3.37
2018-02-27T02:48:18.645Z,4.80
2018-02-27T02:50:46.923Z,3.45
2018-02-27T02:53:15.231Z,3.10
2018-02-27T02:55:47.512Z,5.85
2018-02-27T02:58:15.781Z,3.70
2018-02-27T03:00:44.842Z,2.25
2018-02-27T03:03:13.918Z,4.55
2018-02-27T03:05:42.172Z,5.87
2018-02-27T03:08:11.405Z,5.00
2018-02-27T03:10:39.682Z,6.07
2018-02-27T03:13:08.777Z,4.35
2018-02-27T03:15:37.105Z,5.90
2018-02-27T03:18:05.373Z,3.25
2018-02-27T03:20:36.526Z,5.70
2018-02-27T03:23:04.836Z,6.28
2018-02-27T03:25:34.661Z,5.40
2018-02-27T03:28:02.905Z,5.18
2018-02-27T03:30:31.628Z,5.35
2018-02-27T03:32:59.971Z,5.50
2018-02-27T03:35:28.235Z,5.15
2018-02-27T03:37:56.860Z,5.72
2018-02-27T03:40:25.121Z,6.22
2018-02-27T03:42:53.404Z,4.07
2018-02-27T03:45:23.617Z,7.05
2018-02-27T03:47:51.871Z,5.55
2018-02-27T03:50:22.373Z,3.62
2018-02-27T03:52:50.678Z,3.78
2018-02-27T03:55:18.943Z,4.95
2018-02-27T03:57:48.756Z,7.87
2018-02-27T04:00:17.398Z,4.87
2018-02-27T04:02:45.669Z,6.07
2018-02-27T04:05:13.943Z,2.75
2018-02-27T04:07:42.274Z,4.72
2018-02-27T04:10:14.959Z,3.58
2018-02-27T04:12:43.399Z,4.12
2018-02-27T04:15:12.431Z,5.00
2018-02-27T04:17:40.705Z,6.40
2018-02-27T04:20:09.013Z,6.65
2018-02-27T04:22:37.669Z,5.25
2018-02-27T04:25:05.962Z,7.10
2018-02-27T04:27:35.274Z,5.53
2018-02-27T04:30:03.586Z,5.32
2018-02-27T04:32:32.614Z,8.43
2018-02-27T04:35:02.462Z,6.18
2018-02-27T04:37:30.738Z,5.55
2018-02-27T04:39:59.742Z,7.10
2018-02-27T04:42:28.413Z,8.13
2018-02-27T04:44:56.689Z,6.55
2018-02-27T04:47:25.708Z,5.97
2018-02-27T04:49:54.031Z,6.85
2018-02-27T04:52:23.060Z,9.02
2018-02-27T04:54:51.319Z,8.30
2018-02-27T04:57:19.614Z,7.82
2018-02-27T04:59:50.503Z,7.00
2018-02-27T05:02:18.812Z,5.85
2018-02-27T05:04:47.414Z,8.27
2018-02-27T05:07:15.686Z,4.82
2018-02-27T05:09:43.976Z,5.37
2018-02-27T05:12:13.028Z,5.45
2018-02-27T05:14:41.307Z,6.97
2018-02-27T05:17:10.281Z,7.10
2018-02-27T05:19:38.725Z,8.50
2018-02-27T05:22:07.031Z,5.12
2018-02-27T05:24:38.001Z,8.65
2018-02-27T05:27:06.472Z,6.40
2018-02-27T05:29:34.764Z,7.47
2018-02-27T05:32:03.037Z,7.65
2018-02-27T05:34:31.842Z,5.93
2018-02-27T05:37:00.177Z,5.43
2018-02-27T05:39:28.441Z,6.45
2018-02-27T05:41:58.254Z,8.25
2018-02-27T05:44:26.517Z,3.20
2018-02-27T05:46:55.569Z,8.80
2018-02-27T05:49:24.976Z,7.20
2018-02-27T05:51:53.255Z,6.15
2018-02-27T05:54:21.510Z,5.43
2018-02-27T05:56:49.834Z,6.43
2018-02-27T05:59:18.101Z,6.82
2018-02-27T06:01:47.949Z,6.97
2018-02-27T06:04:16.495Z,8.05
2018-02-27T06:06:44.797Z,7.12
2018-02-27T06:09:13.837Z,6.05
2018-02-27T06:11:42.148Z,6.05
2018-02-27T06:14:12.331Z,4.87
2018-02-27T06:16:40.714Z,3.87
2018-02-27T06:19:09.010Z,7.75
2018-02-27T06:21:38.070Z,7.50
2018-02-27T06:24:06.341Z,6.70
2018-02-27T06:26:35.236Z,7.72
2018-02-27T06:29:03.511Z,6.12
2018-02-27T06:31:32.558Z,4.85
2018-02-27T06:34:01.208Z,6.05
2018-02-27T06:36:29.483Z,9.38
2018-02-27T06:38:59.176Z,7.50
2018-02-27T06:41:27.600Z,5.28
2018-02-27T06:43:55.880Z,6.72
2018-02-27T06:46:24.227Z,5.82
2018-02-27T06:48:52.714Z,6.25
2018-02-27T06:51:22.519Z,6.82
2018-02-27T06:53:50.784Z,6.18
2018-02-27T06:56:21.519Z,7.25
2018-02-27T06:58:49.794Z,4.35
2018-02-27T07:01:18.856Z,5.43
2018-02-27T07:03:49.032Z,7.65
2018-02-27T07:06:17.325Z,6.80
2018-02-27T07:08:46.324Z,6.45
2018-02-27T07:11:14.666Z,5.55
2018-02-27T07:13:42.934Z,7.72
2018-02-27T07:16:11.202Z,5.70
2018-02-27T07:18:39.515Z,5.65
2018-02-27T07:21:07.817Z,8.48
2018-02-27T07:23:36.879Z,7.37
2018-02-27T07:26:06.008Z,4.70
2018-02-27T07:28:39.741Z,3.75
2018-02-27T07:31:08.352Z,1.98
2018-02-27T07:33:36.634Z,6.93
2018-02-27T07:36:04.907Z,5.47
2018-02-27T07:38:33.224Z,4.43
2018-02-27T07:41:02.355Z,4.65
2018-02-27T07:43:30.632Z,6.82
2018-02-27T07:45:58.945Z,4.00
2018-02-27T07:48:27.239Z,4.55
2018-02-27T07:50:56.280Z,5.40
2018-02-27T07:53:26.009Z,6.20
2018-02-27T07:55:54.294Z,6.55
2018-02-27T07:58:23.287Z,4.12
2018-02-27T08:00:51.880Z,7.47
2018-02-27T08:03:20.180Z,5.97
2018-02-27T08:05:49.975Z,6.45
2018-02-27T08:08:18.292Z,6.20
2018-02-27T08:10:48.096Z,4.10
2018-02-27T08:13:17.196Z,5.07
2018-02-27T08:15:45.622Z,5.05
2018-02-27T08:18:13.941Z,4.80
2018-02-27T08:20:42.222Z,3.07
2018-02-27T08:23:13.615Z,4.03
2018-02-27T08:25:41.900Z,5.10
2018-02-27T08:28:10.166Z,2.55
2018-02-27T08:30:39.682Z,4.90
2018-02-27T08:33:07.968Z,5.40
2018-02-27T08:35:36.962Z,4.47
2018-02-27T08:38:05.549Z,3.50
2018-02-27T08:40:33.826Z,5.37
2018-02-27T08:43:05.681Z,4.87
2018-02-27T08:45:35.001Z,4.00
2018-02-27T08:48:03.332Z,4.90
2018-02-27T08:50:31.676Z,3.37
2018-02-27T08:53:00.772Z,3.63
2018-02-27T08:55:31.343Z,3.97
2018-02-27T08:57:59.754Z,4.20
2018-02-27T09:00:28.425Z,3.80
2018-02-27T09:02:56.713Z,4.60
2018-02-27T09:05:25.753Z,3.30
2018-02-27T09:07:55.382Z,4.77
2018-02-27T09:10:23.656Z,5.30
2018-02-27T09:12:52.646Z,4.90
2018-02-27T09:15:20.956Z,4.43
2018-02-27T09:17:49.229Z,4.63
2018-02-27T09:20:18.372Z,4.13
2018-02-27T09:22:46.896Z,4.33
2018-02-27T09:25:15.280Z,5.97
2018-02-27T09:27:43.952Z,3.33
2018-02-27T09:30:13.608Z,3.80
2018-02-27T09:32:45.553Z,5.17
2018-02-27T09:35:18.617Z,4.57
2018-02-27T09:37:56.078Z,3.67
2018-02-27T09:40:25.316Z,4.87
2018-02-27T09:42:56.045Z,2.43
2018-02-27T09:45:25.550Z,3.33
2018-02-27T09:48:00.014Z,2.50
2018-02-27T09:50:31.994Z,2.03
2018-02-27T09:53:09.983Z,5.03
2018-02-27T09:55:39.480Z,4.60
2018-02-27T09:58:11.687Z,3.57
2018-02-27T10:00:42.168Z,5.10
2018-02-27T10:03:12.267Z,3.70
2018-02-27T10:05:44.952Z,4.80
2018-02-27T10:08:15.101Z,5.07
2018-02-27T10:10:46.929Z,3.63
2018-02-27T10:13:27.008Z,4.83
2018-02-27T10:15:59.879Z,3.63
2018-02-27T10:18:40.047Z,1.73
2018-02-27T10:21:08.227Z,3.87
2018-02-27T10:23:39.173Z,5.40
2018-02-27T10:26:11.222Z,4.03
2018-02-27T10:28:39.392Z,3.97
2018-02-27T10:31:07.795Z,3.23
2018-02-27T10:33:38.280Z,3.33
2018-02-27T10:36:09.147Z,4.97
2018-02-27T10:38:37.453Z,3.40
2018-02-27T10:41:05.728Z,1.80
2018-02-27T10:43:34.047Z,3.87
2018-02-27T10:46:02.834Z,2.80
2018-02-27T10:48:38.336Z,3.20
2018-02-27T10:51:15.789Z,3.90
2018-02-27T10:56:38.069Z,2.33
2018-02-27T10:59:23.889Z,3.47
2018-02-27T11:01:56.711Z,3.63
2018-02-27T11:04:26.414Z,4.00
2018-02-27T11:09:31.436Z,3.10
2018-02-27T11:12:03.551Z,3.07
2018-02-27T11:14:33.136Z,4.23
2018-02-27T11:17:03.127Z,3.53
2018-02-27T11:19:31.820Z,3.70
2018-02-27T11:22:01.317Z,2.90
2018-02-27T11:24:30.629Z,4.57
2018-02-27T11:26:59.222Z,3.73
2018-02-27T11:29:41.916Z,2.10
2018-02-27T11:32:12.259Z,2.17
2018-02-27T11:34:43.973Z,3.23
2018-02-27T11:37:12.377Z,3.30
2018-02-27T11:39:43.420Z,4.20
2018-02-27T11:42:13.336Z,2.87
2018-02-27T11:44:44.900Z,2.90
2018-02-27T11:47:13.236Z,3.43
2018-02-27T11:49:41.423Z,4.10
2018-02-27T11:52:11.555Z,3.80
2018-02-27T11:54:48.842Z,3.23
2018-02-27T11:57:34.595Z,3.20
2018-02-27T12:02:50.518Z,3.50
2018-02-27T12:05:20.670Z,2.87
2018-02-27T12:07:48.927Z,4.00
2018-02-27T12:10:20.076Z,2.70
2018-02-27T12:12:49.172Z,4.00
2018-02-27T12:15:18.376Z,3.23
2018-02-27T12:17:48.271Z,3.07
2018-02-27T12:20:16.873Z,3.77
2018-02-27T12:22:48.294Z,2.50
2018-02-27T12:25:17.551Z,1.83
2018-02-27T12:27:47.538Z,2.00
2018-02-27T12:30:15.846Z,3.57
2018-02-27T12:32:44.290Z,2.10
2018-02-27T12:35:13.251Z,3.07
2018-02-27T12:37:41.539Z,3.63
2018-02-27T12:40:12.332Z,3.27
2018-02-27T12:42:40.672Z,1.73
2018-02-27T12:45:08.966Z,1.93
2018-02-27T12:47:37.448Z,4.70
2018-02-27T12:50:05.739Z,2.60
2018-02-27T12:52:37.797Z,2.60
2018-02-27T12:55:07.283Z,1.80
2018-02-27T12:57:35.605Z,2.10
2018-02-27T13:00:04.855Z,2.20
2018-02-27T13:02:33.397Z,3.30
2018-02-27T13:05:03.227Z,2.53
2018-02-27T13:07:32.318Z,2.00
2018-02-27T13:10:03.972Z,2.47
2018-02-27T13:12:33.122Z,2.47
2018-02-27T13:15:01.425Z,1.90
2018-02-27T13:17:33.603Z,2.40
2018-02-27T13:20:06.681Z,3.83
2018-02-27T13:22:36.756Z,3.03
2018-02-27T13:25:05.059Z,2.87
2018-02-27T13:27:33.697Z,2.90
2018-02-27T13:30:08.028Z,1.80
2018-02-27T13:32:37.004Z,2.87
2018-02-27T13:35:05.276Z,3.20
2018-02-27T13:37:34.341Z,2.00
2018-02-27T13:40:04.789Z,2.20
2018-02-27T13:42:33.073Z,2.83
2018-02-27T13:45:01.385Z,3.60
2018-02-27T13:47:29.698Z,2.10
2018-02-27T13:50:02.590Z,2.57
2018-02-27T13:52:30.870Z,2.17
2018-02-27T13:54:59.167Z,2.80
2018-02-27T13:57:27.648Z,1.43
2018-02-27T13:59:55.917Z,3.40
2018-02-27T14:02:26.660Z,1.40
2018-02-27T14:04:55.126Z,1.80
2018-02-27T14:07:23.435Z,2.37
2018-02-27T14:09:51.736Z,2.83
2018-02-27T14:12:20.372Z,2.50
2018-02-27T14:14:49.429Z,2.00
2018-02-27T14:17:19.024Z,2.57
2018-02-27T14:19:47.858Z,2.17
2018-02-27T14:22:16.650Z,2.30
2018-02-27T14:24:46.202Z,2.60
2018-02-27T14:27:15.202Z,2.37
2018-02-27T14:29:43.489Z,3.20
2018-02-27T14:32:12.544Z,2.23
2018-02-27T14:34:40.913Z,2.27
2018-02-27T14:37:09.911Z,3.60
2018-02-27T14:39:42.353Z,3.00
2018-02-27T14:42:10.631Z,2.80
2018-02-27T14:44:38.926Z,2.50
2018-02-27T14:47:07.252Z,3.00
2018-02-27T14:49:36.415Z,2.80
2018-02-27T14:52:06.730Z,2.87
2018-02-27T14:54:35.227Z,2.87
2018-02-27T14:57:03.531Z,2.80
2018-02-27T14:59:33.153Z,1.50
2018-02-27T15:02:04.016Z,2.60
2018-02-27T15:04:35.609Z,2.70
2018-02-27T15:07:06.631Z,2.30
2018-02-27T15:09:35.704Z,1.83
2018-02-27T15:12:04.839Z,2.73
2018-02-27T15:14:34.290Z,2.43
2018-02-27T15:17:04.611Z,2.50
2018-02-27T15:19:33.812Z,2.60
2018-02-27T15:22:09.656Z,2.87
2018-02-27T15:24:38.389Z,2.50
2018-02-27T15:27:08.239Z,2.17
2018-02-27T15:29:36.879Z,2.03
2018-02-27T15:32:05.266Z,2.00
2018-02-27T15:34:33.546Z,2.67
2018-02-27T15:37:02.233Z,3.07
2018-02-27T15:39:34.301Z,2.50
2018-02-27T15:42:05.578Z,2.40
2018-02-27T15:44:34.107Z,1.20
2018-02-27T15:47:02.505Z,3.07
2018-02-27T15:49:30.987Z,4.13
2018-02-27T15:51:59.366Z,2.93
2018-02-27T15:54:29.694Z,3.07
2018-02-27T15:56:58.047Z,2.30
2018-02-27T15:59:26.324Z,2.03
2018-02-27T16:01:54.727Z,1.70
2018-02-27T16:04:34.913Z,1.67
2018-02-27T16:07:07.582Z,2.40
2018-02-27T16:09:48.094Z,2.67
2018-02-27T16:12:18.741Z,1.93
2018-02-27T16:14:56.461Z,1.77
2018-02-27T16:17:25.142Z,2.10
2018-02-27T16:19:53.480Z,2.43
2018-02-27T16:22:21.803Z,2.23
2018-02-27T16:24:55.357Z,2.30
2018-02-27T16:27:23.649Z,2.10
2018-02-27T16:29:51.947Z,3.00
2018-02-27T16:32:20.926Z,2.20
2018-02-27T16:34:50.152Z,1.77
2018-02-27T16:37:18.525Z,2.67
2018-02-27T16:39:46.972Z,1.73
2018-02-27T16:42:17.242Z,3.00
2018-02-27T16:44:48.573Z,1.90
2018-02-27T16:47:16.932Z,2.93
2018-02-27T16:49:45.442Z,2.80
2018-02-27T16:52:13.740Z,2.00
2018-02-27T16:54:42.867Z,2.60
2018-02-27T16:57:11.277Z,3.00
2018-02-27T16:59:39.579Z,2.00
2018-02-27T17:02:09.675Z,2.20
2018-02-27T17:04:37.988Z,1.60
2018-02-27T17:07:07.077Z,4.47
2018-02-27T17:09:36.464Z,9.20
2018-02-27T17:12:04.763Z,7.57
2018-02-27T17:14:36.705Z,3.87
2018-02-27T17:17:05.004Z,2.53
2018-02-27T17:19:33.440Z,2.37
2018-02-27T17:22:01.747Z,1.80
2018-02-27T17:24:32.142Z,1.80
2018-02-27T17:27:01.428Z,2.53
2018-02-27T17:29:29.740Z,1.90
2018-02-27T17:32:02.262Z,2.43
2018-02-27T17:34:30.525Z,2.30
2018-02-27T17:36:58.812Z,2.80
2018-02-27T17:39:27.229Z,3.00
2018-02-27T17:41:55.519Z,1.90
2018-02-27T17:44:27.366Z,2.83
2018-02-27T17:46:56.316Z,2.10
2018-02-27T17:49:24.934Z,3.40
2018-02-27T17:51:55.880Z,2.40
2018-02-27T17:54:24.260Z,4.57
2018-02-27T17:56:52.564Z,4.17
2018-02-27T17:59:29.332Z,7.00
2018-02-27T18:02:02.562Z,3.07
2018-02-27T18:04:31.926Z,3.97
2018-02-27T18:07:01.758Z,3.57
2018-02-27T18:09:30.827Z,2.73
2018-02-27T18:11:59.539Z,4.10
2018-02-27T18:14:29.353Z,2.63
2018-02-27T18:16:58.415Z,3.23
2018-02-27T18:19:27.058Z,2.40
2018-02-27T18:21:55.462Z,3.60
2018-02-27T18:24:24.760Z,3.90
2018-02-27T18:26:53.377Z,3.00
2018-02-27T18:29:21.661Z,4.30
2018-02-27T18:31:50.005Z,4.30
2018-02-27T18:34:18.331Z,3.77
2018-02-27T18:36:47.629Z,3.67
2018-02-27T18:39:16.692Z,3.27
2018-02-27T18:41:45.264Z,3.93
2018-02-27T18:44:13.613Z,3.90
2018-02-27T18:46:42.844Z,3.13
2018-02-27T18:49:15.638Z,3.80
2018-02-27T18:51:43.903Z,4.03
2018-02-27T18:54:12.968Z,3.33
2018-02-27T18:56:41.621Z,4.73
2018-02-27T18:59:09.956Z,2.50
2018-02-27T19:01:38.329Z,2.80
2018-02-27T19:04:06.724Z,2.80
2018-02-27T19:06:35.257Z,3.67
2018-02-27T19:09:03.528Z,3.55
2018-02-27T19:11:32.581Z,3.87
2018-02-27T19:14:02.177Z,4.37
2018-02-27T19:16:32.749Z,3.23
2018-02-27T19:19:01.082Z,2.93
2018-02-27T19:21:30.325Z,3.27
2018-02-27T19:23:59.386Z,3.57
2018-02-27T19:26:28.486Z,3.27
2018-02-27T19:28:56.763Z,2.60
2018-02-27T19:31:25.057Z,2.60
2018-02-27T19:33:54.192Z,4.40
2018-02-27T19:36:22.467Z,2.00
2018-02-27T19:38:53.539Z,2.90
2018-02-27T19:41:26.918Z,3.30
2018-02-27T19:43:56.914Z,2.80
2018-02-27T19:46:25.268Z,3.33
2018-02-27T19:48:56.292Z,3.80
2018-02-27T19:51:25.337Z,3.30
2018-02-27T19:53:53.629Z,2.70
2018-02-27T19:56:21.977Z,5.57
2018-02-27T19:58:51.224Z,3.80
2018-02-27T20:01:20.031Z,3.97
2018-02-27T20:03:49.496Z,2.50
2018-02-27T20:06:17.795Z,4.37
2018-02-27T20:08:46.051Z,3.27
2018-02-27T20:11:14.575Z,2.67
2018-02-27T20:13:43.705Z,3.00
2018-02-27T20:16:11.988Z,4.20
2018-02-27T20:18:41.376Z,3.35
2018-02-27T20:21:09.709Z,2.72
2018-02-27T20:23:44.858Z,2.55
2018-02-27T20:26:13.705Z,2.40
2018-02-27T20:28:49.888Z,3.25
2018-02-27T20:31:18.196Z,1.48
2018-02-27T20:33:47.276Z,3.15
2018-02-27T20:36:19.045Z,2.80
2018-02-27T20:38:53.835Z,2.73
2018-02-27T20:41:22.310Z,4.23
2018-02-27T20:43:50.689Z,2.83
2018-02-27T20:46:19.885Z,0.65
2018-02-27T20:48:48.371Z,3.17
2018-02-27T20:51:17.902Z,4.40
2018-02-27T20:53:46.954Z,2.33
2018-02-27T20:56:15.405Z,3.05
2018-02-27T20:58:45.252Z,4.20
2018-02-27T21:01:13.544Z,4.28
2018-02-27T21:03:47.458Z,2.62
2018-02-27T21:06:15.804Z,3.28
2018-02-27T21:08:44.973Z,3.92
2018-02-27T21:11:15.182Z,3.50
2018-02-27T21:13:44.246Z,3.42
2018-02-27T21:16:13.376Z,1.83
2018-02-27T21:18:44.055Z,4.50
2018-02-27T21:21:12.362Z,3.90
2018-02-27T21:23:40.826Z,2.95
2018-02-27T21:26:12.561Z,3.65
2018-02-27T21:28:41.729Z,4.70
2018-02-27T21:31:10.675Z,3.78
2018-02-27T21:33:40.827Z,3.83
2018-02-27T21:36:09.888Z,3.85
2018-02-27T21:38:38.180Z,3.65
2018-02-27T21:41:06.539Z,2.85
2018-02-27T21:43:34.857Z,3.05
2018-02-27T21:46:04.724Z,2.90
2018-02-27T21:48:33.077Z,1.45
2018-02-27T21:51:03.693Z,2.85
2018-02-27T21:53:33.839Z,3.80
2018-02-27T21:56:02.399Z,3.70
2018-02-27T21:58:30.718Z,5.12
2018-02-27T22:00:59.154Z,3.08
2018-02-27T22:03:27.490Z,4.40
2018-02-27T22:05:55.812Z,4.03
2018-02-27T22:08:24.093Z,3.15
2018-02-27T22:10:53.509Z,3.08
2018-02-27T22:13:23.294Z,3.40
2018-02-27T22:15:52.598Z,3.55
2018-02-27T22:18:20.956Z,2.45
2018-02-27T22:20:49.268Z,4.40
2018-02-27T22:23:18.279Z,3.80
2018-02-27T22:25:47.074Z,4.05
2018-02-27T22:28:15.378Z,5.82
2018-02-27T22:30:43.691Z,6.07
2018-02-27T22:33:12.245Z,4.22
2018-02-27T22:35:41.078Z,3.75
2018-02-27T22:38:09.343Z,2.95
2018-02-27T22:40:37.682Z,4.62
2018-02-27T22:43:05.952Z,4.40
2018-02-27T22:45:34.238Z,3.58
2018-02-27T22:48:05.871Z,4.85
2018-02-27T22:50:34.118Z,2.90
2018-02-27T22:53:02.394Z,2.35
2018-02-27T22:55:31.872Z,6.25
2018-02-27T22:58:01.736Z,3.95
2018-02-27T23:00:40.290Z,2.25
2018-02-27T23:03:08.555Z,4.90
2018-02-27T23:05:36.826Z,4.50
2018-02-27T23:08:06.428Z,6.28
2018-02-27T23:10:36.510Z,3.47
2018-02-27T23:13:05.548Z,4.50
2018-02-27T23:15:33.863Z,4.55
2018-02-27T23:18:02.147Z,4.70
2018-02-27T23:20:30.395Z,3.83
2018-02-27T23:22:59.772Z,3.95
2018-02-27T23:25:56.216Z,3.78
2018-02-27T23:28:28.404Z,4.22
2018-02-27T23:30:57.698Z,7.00
2018-02-27T23:33:40.288Z,4.45
2018-02-27T23:36:08.541Z,5.03
2018-02-27T23:38:36.812Z,6.37
2018-02-27T23:41:05.147Z,4.07
2018-02-27T23:43:35.762Z,2.25
2018-02-27T23:46:04.114Z,4.75
2018-02-27T23:48:32.414Z,4.95
2018-02-27T23:51:00.672Z,3.78
2018-02-27T23:53:28.989Z,4.60
2018-02-27T23:55:59.963Z,5.12
2018-02-27T23:58:30.087Z,5.97
